This is the latest recevied weather packets stored in our database for station/object DB0HRH-10. If no packets are shown the sender has not sent any weather packets the latest 1 day(s).
| Time | Temp. | Humidity | Pressure | Rain* | Wind** | Luminosity | Snow |
|---|---|---|---|---|---|---|---|
| 1778086983 | 13.89° C | 77% | 1014.2 hPa | - | - | - | - |
| 1778086083 | 13.33° C | 78% | 1014.1 hPa | - | - | - | - |
| 1778085183 | 13.33° C | 79% | 1014 hPa | - | - | - | - |
| 1778077082 | 13.89° C | 79% | 1013.9 hPa | - | - | - | - |
| 1778076182 | 13.89° C | 79% | 1013.6 hPa | - | - | - | - |
| 1778075282 | 13.89° C | 80% | 1013.7 hPa | - | - | - | - |
| 1778074382 | 13.89° C | 81% | 1013.7 hPa | - | - | - | - |
| 1778067181 | 16.11° C | 70% | 1012.2 hPa | - | - | - | - |
| 1778066281 | 15.56° C | 69% | 1012.1 hPa | - | - | - | - |
| 1778065381 | 16.11° C | 73% | 1012.2 hPa | - | - | - | - |
| 1778064481 | 15.56° C | 80% | 1012.1 hPa | - | - | - | - |
| 1778063581 | 15.56° C | 88% | 1012.3 hPa | - | - | - | - |
| 1778057280 | 15° C | 72% | 1012.1 hPa | - | - | - | - |
| 1778056380 | 14.44° C | 71% | 1012.1 hPa | - | - | - | - |
| 1778055480 | 14.44° C | 72% | 1012 hPa | - | - | - | - |
| 1778054580 | 14.44° C | 72% | 1012 hPa | - | - | - | - |
| 1778053680 | 14.44° C | 72% | 1012.1 hPa | - | - | - | - |
| 1778052780 | 13.89° C | 72% | 1012.1 hPa | - | - | - | - |
| 1778051880 | 13.89° C | 72% | 1012.1 hPa | - | - | - | - |
| 1778048279 | 13.33° C | 70% | 1012 hPa | - | - | - | - |
| 1778046479 | 13.33° C | 70% | 1012.1 hPa | - | - | - | - |
| 1778045579 | 13.33° C | 69% | 1012.2 hPa | - | - | - | - |
| 1778044679 | 12.78° C | 69% | 1012.4 hPa | - | - | - | - |
| 1778043779 | 12.78° C | 70% | 1012.1 hPa | - | - | - | - |
| 1778042879 | 12.78° C | 70% | 1012.2 hPa | - | - | - | - |
* Rain since midnight (hover to see other rain measurements)
** Current wind speed in m/s (hover to see current wind gust speed)